Skip Navigation Links
NOAA logo - Click to go to the NOAA homepage
NOAA's National Weather Service
Alaska Aviation Weather Unit
  NWS logo - Click to go to the NWS homepage
Left Navbar Graphic     02 AKDT = 10 GMT

   
NOAA is celebrating 200 years of science, service, and stewardship. Visit the NOAA 200th celebration Web site to learn more.
USA.gov is the U.S. Government's official Web portal to all Federal, state and local government Web resources and services.
Facebook
NWS on Facebook

AAWU Home :: Display TAF Add Bookmark
METAR PABV 270456Z AUTO 00000KT 10SM CLR M02/M10 A2961 RMK AO2 SLP035
     T10221100 FZRANO $=

METAR PABV 270556Z AUTO 23003KT 10SM CLR M05/M11 A2960 RMK AO2 SLP033
     T10501111 10000 21050 56008 FZRANO $=

METAR PABV 270656Z AUTO 00000KT 10SM CLR M07/M13 A2960 RMK AO2
 SLP031 T10721128 FZRANO $=

METAR PABV 270756Z AUTO 00000KT 10SM CLR M08/M13 A2959 RMK AO2
 SLP027 T10781128 400001139 FZRANO $=

METAR PABV 270856Z AUTO 16003KT 10SM CLR M10/M14 A2957 RMK AO2 SLP023
     T11001144 58010 FZRANO $=

METAR PABV 270956Z AUTO 00000KT 10SM CLR M11/M14 A2957 RMK AO2 SLP020
     T11061144 FZRANO $=


NOAA's National Weather Service
Alaska Aviation Weather Unit
6930 Sand Lake Road
Anchorage, AK 99502-1845
Disclaimer
Credits
Glossary
Privacy Policy
About Us
Career Opportunities
Contact AAWU Internet Services Site last modified: April, 17th 2012